CDT,Max TemperatureF,Mean TemperatureF,Min TemperatureF,Max Dew PointF,MeanDew PointF,Min DewpointF,Max Humidity, Mean Humidity, Min Humidity, Max Sea Level PressureIn, Mean Sea Level PressureIn, Min Sea Level PressureIn, Max VisibilityMiles, Mean VisibilityMiles, Min VisibilityMiles, Max Wind SpeedMPH, Mean Wind SpeedMPH, Max Gust SpeedMPH,PrecipitationIn, CloudCover, Events, WindDirDegrees
2011-10-1,71,54,37,43,39,35,93,63,30,30.32,30.25,30.21,10,10,6,9,2,,0.00,0,,126
2011-10-2,75,58,41,45,40,38,93,57,25,30.27,30.21,30.14,10,10,5,10,4,,0.00,0,,149
2011-10-3,82,63,44,46,43,39,83,51,25,30.20,30.15,30.10,10,8,1,16,6,21,0.00,0,,135
2011-10-4,89,70,52,49,47,45,80,47,25,30.16,30.10,30.04,10,10,4,16,7,22,0.00,0,,166
2011-10-5,82,66,50,47,43,37,83,48,21,30.12,30.05,29.99,10,10,8,17,8,26,0.00,0,,160
2011-10-6,84,67,52,52,47,42,77,50,26,30.03,29.96,29.88,10,10,10,26,10,34,0.00,0,,149
2011-10-7,84,74,66,61,56,51,59,53,47,30.00,29.95,29.90,10,10,10,25,17,38,0.00,2,,162
2011-10-8,82,72,62,65,58,52,97,69,47,30.09,30.04,29.98,10,10,10,21,11,31,0.00,3,Rain,163
2011-10-9,82,69,57,61,55,51,100,66,39,30.13,30.07,30.00,10,10,10,16,7,25,0.00,2,,140
2011-10-10,72,64,57,60,57,54,100,80,55,30.06,30.01,29.94,10,10,6,12,4,16,0.06,5,Rain,215
2011-10-11,77,65,53,60,54,49,100,83,40,29.96,29.89,29.76,10,5,0,14,4,23,0.00,2,Fog,155
2011-10-12,73,64,55,61,57,48,100,81,60,29.79,29.71,29.66,10,9,4,17,6,25,0.05,4,Rain,266
2011-10-13,73,60,48,46,40,34,83,53,25,29.86,29.81,29.77,10,10,10,17,9,28,0.00,0,,300
2011-10-14,66,56,44,39,34,29,63,48,27,30.05,29.96,29.84,10,10,10,17,9,31,0.00,1,,302
2011-10-15,73,54,35,47,36,30,85,52,27,30.10,29.97,29.76,10,10,10,18,6,26,0.00,0,,215
2011-10-16,68,60,48,52,42,36,72,55,37,30.04,29.95,29.72,10,10,10,17,10,26,0.00,0,,332
2011-10-17,60,50,42,43,38,29,93,69,33,30.04,30.01,29.96,10,10,10,13,5,23,0.00,3,,338
2011-10-18,53,47,37,39,33,24,71,58,45,30.07,30.04,29.99,10,10,10,17,9,26,0.00,3,,324
2011-10-19,50,39,30,29,26,24,82,64,41,30.11,30.08,30.05,10,10,10,17,8,29,0.00,0,,325
2011-10-20,55,41,28,32,28,24,92,66,40,30.11,30.07,30.02,10,10,10,14,7,23,0.00,0,,313
2011-10-21,71,48,26,39,33,24,93,62,31,30.17,30.10,30.04,10,10,9,13,2,,0.00,0,,196
2011-10-22,66,52,37,46,41,34,89,66,39,30.14,30.07,30.01,10,10,10,8,3,,0.00,4,Rain,60
2011-10-23,79,59,39,49,43,40,100,63,26,30.03,29.96,29.88,10,10,8,14,4,23,0.00,1,,269
2011-10-24,82,58,37,50,40,36,93,53,21,30.14,30.00,29.85,10,10,6,16,5,26,0.00,0,,173
2011-10-25,80,68,52,55,48,40,65,50,31,29.96,29.77,29.67,10,10,10,22,15,33,0.00,0,,234
2011-10-26,57,50,44,41,38,36,71,66,53,30.11,30.06,29.97,10,10,10,16,10,26,0.00,5,,343
2011-10-27,57,44,32,36,30,22,96,62,27,30.20,30.15,30.11,10,10,10,10,5,16,0.00,2,,321
2011-10-28,59,43,27,31,25,20,92,58,28,30.22,30.20,30.17,10,10,4,15,3,23,0.00,0,,306
2011-10-29,66,47,28,30,27,23,82,49,22,30.17,30.02,29.86,10,10,9,15,4,23,0.00,0,,176
2011-10-30,61,50,39,36,29,22,62,43,23,30.09,30.00,29.87,10,10,10,18,11,29,0.00,1,,286
2011-10-31,68,48,28,34,27,21,78,49,24,30.12,30.04,29.93,10,10,7,13,5,,0.00,0,,158